• Join FlightAware (Why Join?)
  • Login
  • US Flag 
07:54PM EDT


 

Airport Tracker/Info


-or-


 

Live Flight TrackerFlight Track Log ✈ N1944E ✈ 19-Jan-2014 ✈ KJAC - KEGE

Flight Track Log - Related Links

Times and Time Zones

All times are in EST time to prevent confusion due to time zone crossing. See the N1944E flight status page for this flight to view local times or setup timezone preferences in your user account.

Time Position Orientation Groundspeed Altitude Reporting Facility
EST Latitude Longitude Course Direction KTS MPH feet Rate Location/Type
04:28PM 43.5761 -110.7533 279° West 150 173 7,100  Level Salt Lake Center
04:29PM 43.3370 -110.4574 291° West  Level Estimated
04:29PM 43.5431 -110.7700 200° South 127 146 8,300  Level Salt Lake Center
04:30PM 43.3461 -110.5339 279° West  Level FlightAware Approximate
04:30PM 43.5097 -110.7872 201° Southwest 127 146 9,200  Level Salt Lake Center
04:31PM 43.3553 -110.6104 279° West  Level FlightAware Approximate
04:31PM 43.4692 -110.7750 168° South 146 168 10,100  Level Salt Lake Center
04:32PM 43.3643 -110.6870 279° West  Level FlightAware Approximate
04:32PM 43.4364 -110.7336 137° Southeast 160 184 11,100  Level Salt Lake Center
04:33PM 43.3733 -110.7636 279° West  Level FlightAware Approximate
04:33PM 43.3981 -110.6942 143° Southeast 166 191 12,000  Level Salt Lake Center
04:34PM 43.3575 -110.6533 144° Southeast 177 204 13,000 960 Climbing Salt Lake Center
04:35PM 43.3089 -110.5994 141° Southeast 187 215 14,000 780 Climbing Salt Lake Center
04:36PM 43.2658 -110.5550 143° Southeast 193 222 14,600 720 Climbing Salt Lake Center
04:37PM 43.2197 -110.5083 144° Southeast 198 228 15,600 1,020 Climbing Salt Lake Center
04:38PM 43.1783 -110.4650 143° Southeast 198 228 16,700 660 Climbing Salt Lake Center
04:39PM 43.1297 -110.4094 140° Southeast 203 234 17,000 120 Climbing Salt Lake Center
04:40PM 43.0828 -110.3633 144° Southeast 214 246 17,000  Level Salt Lake Center
04:41PM 43.0311 -110.3125 144° Southeast 229 264 17,000  Level Salt Lake Center
04:42PM 42.9764 -110.2486 139° Southeast 232 267 17,000  Level Salt Lake Center
04:43PM 42.9286 -110.1964 141° Southeast 231 266 17,000 -60 Level Salt Lake Center
04:44PM 42.8714 -110.1358 142° Southeast 233 268 16,900  Descending Salt Lake Center
04:45PM 42.8233 -110.0836 141° Southeast 232 267 17,000  Climbing Salt Lake Center
04:46PM 42.7736 -110.0336 144° Southeast 232 267 17,000  Level Salt Lake Center
04:47PM 42.7169 -109.9728 142° Southeast 233 268 17,000  Level Salt Lake Center
04:48PM 42.6683 -109.9219 142° Southeast 232 267 17,000 -60 Level Salt Lake Center
04:49PM 42.6119 -109.8614 142° Southeast 232 267 16,900  Descending Salt Lake Center
04:50PM 42.5636 -109.8097 142° Southeast 230 265 17,000  Climbing Salt Lake Center
04:51PM 42.5053 -109.7522 144° Southeast 231 266 17,000  Level Salt Lake Center
04:52PM 42.4564 -109.6997 142° Southeast 233 268 17,000  Level Salt Lake Center
04:53PM 42.4072 -109.6472 142° Southeast 234 269 17,000  Level Salt Lake Center
04:54PM 42.3500 -109.5889 143° Southeast 233 268 17,000  Level Salt Lake Center
04:56PM 42.3008 -109.5367 142° Southeast 233 268 17,000  Level Salt Lake Center
04:57PM 42.2431 -109.4778 143° Southeast 233 268 17,000  Level Salt Lake Center
04:58PM 42.1950 -109.4278 142° Southeast 230 265 17,000  Level Salt Lake Center
04:59PM 42.1478 -109.3783 142° Southeast 227 261 17,000  Level Salt Lake Center
05:00PM 42.0925 -109.3214 143° Southeast 224 258 17,000  Level Salt Lake Center
05:01PM 42.0453 -109.2733 143° Southeast 224 258 17,000  Level Salt Lake Center
05:02PM 41.9892 -109.2164 143° Southeast 225 259 17,000  Level Salt Lake Center
05:03PM 41.9408 -109.1664 142° Southeast 227 261 17,000  Level Salt Lake Center
05:04PM 41.8925 -109.1172 143° Southeast 227 261 17,000  Level Salt Lake Center
05:05PM 41.8372 -109.0592 142° Southeast 227 261 17,000  Level Salt Lake Center
05:06PM 41.7889 -109.0100 143° Southeast 227 261 17,000  Level Salt Lake Center
05:07PM 41.7322 -108.9531 143° Southeast 227 261 17,000  Level Salt Lake Center
05:08PM 41.6833 -108.9050 144° Southeast 227 261 17,000  Level Salt Lake Center
05:09PM 41.6331 -108.8550 143° Southeast 231 266 17,000  Level Salt Lake Center
05:10PM 41.5772 -108.7967 142° Southeast 227 261 17,000  Level Salt Lake Center
05:11PM 41.5281 -108.7472 143° Southeast 229 264 17,000 -60 Level Salt Lake Center
05:12PM 41.4700 -108.6906 144° Southeast 231 266 16,900  Descending Salt Lake Center
05:13PM 41.4211 -108.6406 143° Southeast 231 266 17,000  Climbing Salt Lake Center
05:14PM 41.3725 -108.5897 142° Southeast 231 266 17,000  Level Salt Lake Center
05:15PM 41.3139 -108.5331 144° Southeast 232 267 17,000  Level Salt Lake Center
05:16PM 41.2642 -108.4822 142° Southeast 234 269 17,000  Level Salt Lake Center
05:17PM 41.2069 -108.4247 143° Southeast 233 268 17,000  Level Salt Lake Center
05:18PM 41.1592 -108.3761 143° Southeast 230 265 17,000  Level Salt Lake Center
05:19PM 41.1022 -108.3200 143° Southeast 228 262 17,000  Level Salt Lake Center
05:20PM 41.0517 -108.2722 145° Southeast 229 264 17,000  Level Denver Center
05:21PM 41.0022 -108.2239 144° Southeast 230 265 17,100  Climbing Denver Center
05:22PM 40.9453 -108.1681 143° Southeast 228 262 17,100  Level Denver Center
05:23PM 40.8975 -108.1203 143° Southeast 227 261 17,100  Level Denver Center
05:24PM 40.8394 -108.0642 144° Southeast 229 264 17,100  Level Denver Center
05:25PM 40.7906 -108.0175 144° Southeast 227 261 17,100  Level Denver Center
05:26PM 40.7417 -107.9703 144° Southeast 228 262 17,100  Level Denver Center
05:27PM 40.6858 -107.9125 142° Southeast 228 262 17,100  Level Denver Center
05:28PM 40.6372 -107.8667 144° Southeast 226 260 17,100  Level Denver Center
05:29PM 40.5825 -107.8139 144° Southeast 222 255 17,100  Level Denver Center
05:30PM 40.5358 -107.7669 143° Southeast 221 254 17,100  Level Denver Center
05:31PM 40.4825 -107.7161 144° Southeast 214 246 17,100  Level Denver Center
05:32PM 40.4381 -107.6733 144° Southeast 208 239 17,100  Level Denver Center
05:34PM 40.3869 -107.6239 144° Southeast 204 235 17,100  Level Denver Center
05:35PM 40.3433 -107.5817 144° Southeast 203 234 17,100  Level Denver Center
05:36PM 40.3003 -107.5408 144° Southeast 201 231 17,100  Level Denver Center
05:37PM 40.2489 -107.4925 144° Southeast 203 234 17,100  Level Denver Center
05:38PM 40.2058 -107.4514 144° Southeast 201 231 17,100  Level Denver Center
05:39PM 40.1567 -107.4031 143° Southeast 196 226 17,100  Level Denver Center
05:40PM 40.1147 -107.3628 144° Southeast 194 223 17,100  Level Denver Center
05:41PM 40.0647 -107.3156 144° Southeast 197 227 17,100  Level Denver Center
05:42PM 40.0228 -107.2747 143° Southeast 197 227 17,100  Level Denver Center
05:43PM 39.9803 -107.2350 144° Southeast 198 228 17,100  Level Denver Center
05:44PM 39.9369 -107.1939 144° Southeast 195 224 17,100  Level Denver Center
05:45PM 39.8944 -107.1531 144° Southeast 189 217 17,100 -540 Level Denver Center
05:46PM 39.8433 -107.1019 142° Southeast 194 223 16,000 -1,260 Descending Denver Center
05:47PM 39.8003 -107.0647 146° Southeast 187 215 14,500 -1,680 Descending Denver Center
05:48PM 39.7544 -107.0269 148° Southeast 181 208 12,600 -1,860 Descending Denver Center